Time;durP1;ratioP1;P1;durP2;ratioP2;P2;SDS_P1;SDS_P2;PMS_P1;PMS_P2;Temp;Humidity;BMP_temperature;BMP_pressure;BME280_temperature;BME280_humidity;BME280_pressure;Samples;Min_cycle;Max_cycle;Signal;HPM_P1;HPM_P2
2021/01/12 00:00:33;;;;;;;6.10;1.40;;;27.70;73.60;;;;;;4987286;28;20189;-73
2021/01/12 00:03:01;;;;;;;5.73;1.63;;;27.80;73.70;;;;;;4992135;28;20177;-72
2021/01/12 00:05:29;;;;;;;6.17;1.70;;;27.90;73.10;;;;;;4991561;28;20273;-73
2021/01/12 00:07:57;;;;;;;10.57;2.03;;;27.90;73.00;;;;;;4993385;28;20298;-73
2021/01/12 00:10:24;;;;;;;12.57;2.10;;;28.20;73.50;;;;;;4993327;28;20599;-73
2021/01/12 00:12:55;;;;;;;9.90;1.67;;;28.40;72.90;;;;;;4977959;28;20196;-73
2021/01/12 00:15:22;;;;;;;7.03;1.73;;;28.50;72.20;;;;;;4988397;28;20205;-71
2021/01/12 00:17:50;;;;;;;8.27;1.90;;;28.30;72.30;;;;;;4988519;28;20189;-70
2021/01/12 00:20:17;;;;;;;11.40;1.27;;;28.50;73.20;;;;;;4989465;28;20186;-71
2021/01/12 00:22:45;;;;;;;5.67;1.70;;;28.70;71.60;;;;;;4980595;28;20648;-71
2021/01/12 00:25:14;;;;;;;5.27;1.67;;;28.90;71.50;;;;;;4980704;28;20186;-72
2021/01/12 00:27:41;;;;;;;9.57;1.73;;;29.10;71.00;;;;;;4989129;28;20225;-71
2021/01/12 00:30:10;;;;;;;11.17;1.77;;;29.10;70.70;;;;;;4982937;28;20174;-71
2021/01/12 00:32:37;;;;;;;6.27;1.60;;;29.10;70.40;;;;;;4982925;28;20277;-72
2021/01/12 00:35:05;;;;;;;3.93;1.40;;;29.10;70.10;;;;;;4984693;28;20260;-71
2021/01/12 00:37:32;;;;;;;2.90;1.10;;;28.80;70.40;;;;;;4988857;28;20631;-72
2021/01/12 00:39:59;;;;;;;7.70;1.33;;;28.90;69.60;;;;;;4984231;28;20186;-73
2021/01/12 00:42:27;;;;;;;5.73;1.33;;;29.40;69.30;;;;;;4976379;28;20186;-72
2021/01/12 00:44:54;;;;;;;3.37;1.30;;;29.10;67.60;;;;;;4984504;28;20177;-72
2021/01/12 00:47:24;;;;;;;7.27;1.43;;;29.30;67.70;;;;;;4989488;28;20220;-72
2021/01/12 00:49:52;;;;;;;3.20;1.20;;;29.60;66.20;;;;;;4983829;28;20187;-72
2021/01/12 00:52:20;;;;;;;12.60;2.00;;;29.60;66.20;;;;;;4986293;28;20191;-71
2021/01/12 00:54:47;;;;;;;6.00;1.60;;;29.70;65.40;;;;;;4988252;28;20198;-72
2021/01/12 00:57:14;;;;;;;5.90;1.60;;;29.70;66.40;;;;;;4989502;28;20190;-71
2021/01/12 00:59:45;;;;;;;4.50;1.60;;;29.80;66.60;;;;;;4981858;28;20187;-71
2021/01/12 01:02:13;;;;;;;4.53;1.27;;;29.80;66.40;;;;;;4988782;28;20276;-70
2021/01/12 01:04:41;;;;;;;6.60;1.43;;;29.80;65.70;;;;;;4986771;28;20193;-72
2021/01/12 01:07:08;;;;;;;4.33;1.40;;;29.90;65.00;;;;;;4988114;28;20663;-71
2021/01/12 01:09:35;;;;;;;4.00;1.03;;;29.80;64.60;;;;;;4992653;28;20185;-71
2021/01/12 01:12:03;;;;;;;7.30;1.40;;;29.40;65.40;;;;;;4990970;28;20189;-71
2021/01/12 01:14:30;;;;;;;5.60;1.53;;;29.40;64.80;;;;;;4992270;28;20186;-72
2021/01/12 01:16:58;;;;;;;3.57;1.47;;;29.40;65.10;;;;;;4993186;28;20238;-71
2021/01/12 01:19:25;;;;;;;11.13;2.10;;;29.80;65.50;;;;;;4992860;28;20178;-71
2021/01/12 01:21:53;;;;;;;3.20;1.20;;;29.90;64.70;;;;;;4992795;28;20221;-72
2021/01/12 01:24:20;;;;;;;4.13;1.40;;;29.90;65.60;;;;;;4993336;28;20587;-72
2021/01/12 01:26:48;;;;;;;6.23;1.43;;;29.90;65.60;;;;;;4981141;28;20198;-71
2021/01/12 01:29:15;;;;;;;5.60;2.00;;;29.80;65.90;;;;;;4989965;28;20185;-71
2021/01/12 01:31:43;;;;;;;6.53;1.80;;;29.80;67.00;;;;;;4987879;28;20187;-72
2021/01/12 01:34:10;;;;;;;3.63;1.20;;;30.10;66.40;;;;;;4991614;28;20540;-71
2021/01/12 01:36:38;;;;;;;9.93;2.00;;;30.40;66.10;;;;;;4985360;28;20317;-72
2021/01/12 01:39:06;;;;;;;7.93;1.60;;;30.40;66.80;;;;;;4992976;28;20192;-71
2021/01/12 01:41:33;;;;;;;5.17;2.03;;;30.00;67.60;;;;;;4997059;28;20193;-72
2021/01/12 01:44:02;;;;;;;14.77;2.60;;;30.00;68.30;;;;;;4993869;28;20186;-71
2021/01/12 01:46:29;;;;;;;5.73;2.27;;;29.70;68.60;;;;;;4996167;28;20269;-72
2021/01/12 01:48:57;;;;;;;4.20;1.83;;;30.10;68.20;;;;;;4994448;28;20597;-72
2021/01/12 01:51:25;;;;;;;9.97;1.80;;;30.50;67.80;;;;;;4994829;28;20193;-72
2021/01/12 01:53:53;;;;;;;11.68;2.30;;;30.60;66.00;;;;;;4995930;28;20551;-71
2021/01/12 01:56:25;;;;;;;10.50;2.27;;;30.90;66.70;;;;;;4992156;28;20692;-71
2021/01/12 01:58:52;;;;;;;8.07;1.80;;;30.50;67.30;;;;;;4995665;28;20209;-71
2021/01/12 02:01:20;;;;;;;15.55;10.55;;;30.40;66.80;;;;;;4991495;28;20186;-71
2021/01/12 02:04:10;;;;;;;8.48;2.30;;;30.30;67.80;;;;;;4993900;28;20188;-71
2021/01/12 02:06:38;;;;;;;8.20;2.35;;;30.20;67.80;;;;;;4988968;28;20197;-71
2021/01/12 02:09:12;;;;;;;7.90;2.50;;;30.20;67.90;;;;;;4995530;28;20190;-71
2021/01/12 02:11:43;;;;;;;8.45;2.30;;;30.40;68.30;;;;;;4990166;28;20545;-72
2021/01/12 02:14:17;;;;;;;7.80;2.30;;;30.60;68.20;;;;;;4986128;28;20221;-72
2021/01/12 02:16:47;;;;;;;6.00;1.88;;;30.40;68.00;;;;;;4985147;28;20632;-72
2021/01/12 02:19:22;;;;;;;7.87;1.83;;;30.60;67.20;;;;;;4994634;28;20186;-73
2021/01/12 02:21:53;;;;;;;7.88;2.20;;;30.60;66.90;;;;;;4995259;28;20261;-72
2021/01/12 02:24:21;;;;;;;9.67;2.20;;;30.30;67.70;;;;;;4995618;28;20269;-72
2021/01/12 02:26:49;;;;;;;7.93;2.00;;;30.50;68.60;;;;;;4994381;28;20240;-72
2021/01/12 02:29:16;;;;;;;5.43;1.60;;;30.30;68.60;;;;;;4995150;28;20186;-72
2021/01/12 02:31:44;;;;;;;6.83;2.03;;;30.20;68.80;;;;;;4994771;28;20248;-71
2021/01/12 02:34:18;;;;;;;6.00;1.70;;;30.10;70.00;;;;;;4993651;28;20186;-72
2021/01/12 02:36:47;;;;;;;10.43;4.50;;;30.20;69.30;;;;;;4988011;28;20289;-71
2021/01/12 02:39:15;;;;;;;9.25;2.70;;;30.00;69.30;;;;;;4987935;28;20186;-72
2021/01/12 02:41:42;;;;;;;10.50;2.27;;;29.90;70.20;;;;;;4994500;28;20186;-72
2021/01/12 02:44:24;;;;;;;5.80;1.60;;;29.90;70.00;;;;;;4995152;28;20637;-72
2021/01/12 02:46:55;;;;;;;9.00;2.03;;;29.50;70.70;;;;;;4994726;28;20625;-71
2021/01/12 02:49:23;;;;;;;4.65;1.80;;;29.90;70.40;;;;;;4993689;28;20637;-71
2021/01/12 02:51:50;;;;;;;7.55;2.33;;;30.10;70.10;;;;;;4993554;28;20218;-71
2021/01/12 02:54:18;;;;;;;7.90;2.10;;;29.90;69.70;;;;;;4992686;28;20276;-71
2021/01/12 02:56:45;;;;;;;5.23;1.77;;;29.90;70.60;;;;;;4992640;28;21027;-71
2021/01/12 02:59:12;;;;;;;6.97;1.87;;;30.20;69.60;;;;;;4994468;28;20244;-71
2021/01/12 03:01:40;;;;;;;5.87;1.77;;;30.60;68.60;;;;;;4994495;28;20193;-71
2021/01/12 03:04:07;;;;;;;5.33;1.67;;;30.60;68.70;;;;;;4994663;28;20170;-70
2021/01/12 03:06:34;;;;;;;6.50;2.03;;;30.60;68.30;;;;;;4994388;28;20193;-71
2021/01/12 03:09:02;;;;;;;8.57;2.30;;;30.50;69.00;;;;;;4992025;28;20527;-71
2021/01/12 03:11:30;;;;;;;9.45;1.85;;;30.30;68.90;;;;;;4991661;28;20663;-71
2021/01/12 03:13:58;;;;;;;8.77;2.27;;;30.20;69.00;;;;;;4986953;28;20295;-70
2021/01/12 03:16:26;;;;;;;5.43;1.70;;;29.80;69.70;;;;;;4986531;28;20222;-71
2021/01/12 03:18:53;;;;;;;8.43;2.43;;;29.70;69.30;;;;;;4986380;28;20185;-69
2021/01/12 03:21:21;;;;;;;6.75;2.08;;;29.80;68.80;;;;;;4990178;28;20667;-71
2021/01/12 03:23:48;;;;;;;9.23;1.90;;;29.80;69.70;;;;;;4990773;28;20523;-71
2021/01/12 03:26:21;;;;;;;10.83;2.00;;;29.80;70.50;;;;;;4985352;28;20209;-71
2021/01/12 03:28:48;;;;;;;7.30;1.65;;;30.40;69.70;;;;;;4991667;28;20252;-71
2021/01/12 03:31:16;;;;;;;5.10;1.70;;;30.80;67.80;;;;;;4986435;28;20272;-71
2021/01/12 03:33:43;;;;;;;7.93;2.50;;;30.70;67.60;;;;;;4991528;28;20186;-72
2021/01/12 03:36:11;;;;;;;6.28;1.65;;;30.90;66.80;;;;;;4987024;28;20242;-72
2021/01/12 03:38:38;;;;;;;5.50;1.98;;;30.80;67.10;;;;;;4981536;28;20174;-72
2021/01/12 03:41:06;;;;;;;9.32;1.48;;;30.90;66.50;;;;;;4982303;28;20608;-72
2021/01/12 03:43:33;;;;;;;6.78;1.80;;;31.20;66.60;;;;;;4988020;28;20180;-71
2021/01/12 03:46:01;;;;;;;7.20;1.48;;;31.20;66.60;;;;;;4980235;28;20525;-71
2021/01/12 03:48:28;;;;;;;6.35;1.95;;;31.50;65.80;;;;;;4986001;28;20214;-71
2021/01/12 03:50:55;;;;;;;5.40;1.27;;;31.10;66.30;;;;;;4989017;28;20649;-72
2021/01/12 03:53:23;;;;;;;8.52;1.83;;;31.00;66.60;;;;;;4991546;28;20471;-71
2021/01/12 03:55:50;;;;;;;6.47;2.15;;;30.80;66.90;;;;;;4981424;28;20258;-72
2021/01/12 03:58:18;;;;;;;11.95;4.03;;;30.90;66.80;;;;;;4989479;28;20189;-72
2021/01/12 04:00:46;;;;;;;5.00;3.15;;;30.90;67.00;;;;;;4989844;28;20247;-71
2021/01/12 04:03:13;;;;;;;7.22;1.38;;;31.30;67.00;;;;;;4987531;28;20193;-71
2021/01/12 04:05:41;;;;;;;3.83;1.48;;;31.70;65.20;;;;;;4989513;28;20184;-71
2021/01/12 04:08:11;;;;;;;8.07;1.88;;;31.50;65.60;;;;;;4980657;28;20185;-71
2021/01/12 04:10:39;;;;;;;6.15;1.38;;;31.30;66.80;;;;;;4985432;28;20687;-72
2021/01/12 04:13:06;;;;;;;3.78;1.40;;;31.30;66.80;;;;;;4979343;28;20293;-70
2021/01/12 04:15:33;;;;;;;3.45;1.35;;;31.50;65.60;;;;;;4978411;28;20221;-72
2021/01/12 04:18:01;;;;;;;7.65;1.70;;;31.40;65.30;;;;;;4975436;28;20193;-71
2021/01/12 04:20:28;;;;;;;8.95;1.20;;;31.60;65.00;;;;;;4985371;28;20190;-71
2021/01/12 04:22:56;;;;;;;6.45;1.27;;;31.60;64.40;;;;;;4987824;28;20661;-70
2021/01/12 04:25:23;;;;;;;7.75;1.45;;;31.90;64.10;;;;;;4987743;28;20186;-69
2021/01/12 04:27:50;;;;;;;4.97;1.50;;;32.60;63.70;;;;;;4992553;28;20676;-70
2021/01/12 04:30:18;;;;;;;4.57;1.30;;;32.50;62.90;;;;;;4986488;28;20194;-71
2021/01/12 04:32:45;;;;;;;10.07;1.42;;;32.70;62.50;;;;;;4991330;28;20237;-71
2021/01/12 04:35:13;;;;;;;7.32;1.27;;;32.90;62.30;;;;;;4989541;28;20212;-71
2021/01/12 04:37:40;;;;;;;7.40;1.73;;;32.20;62.60;;;;;;4974219;28;20180;-71
2021/01/12 04:40:08;;;;;;;8.25;1.60;;;32.00;63.50;;;;;;4992384;28;20182;-72
2021/01/12 04:42:35;;;;;;;13.90;1.80;;;32.10;63.70;;;;;;4990065;28;20978;-69
2021/01/12 04:45:05;;;;;;;5.43;1.83;;;32.30;62.00;;;;;;4978903;28;20240;-70
2021/01/12 04:47:32;;;;;;;8.02;2.70;;;31.90;62.30;;;;;;4993012;28;20209;-71
2021/01/12 04:50:06;;;;;;;7.70;2.03;;;31.90;62.10;;;;;;4990763;28;20585;-71
2021/01/12 04:52:52;;;;;;;8.18;1.70;;;32.10;61.90;;;;;;4992243;28;20178;-70
2021/01/12 04:55:21;;;;;;;5.15;1.05;;;32.70;60.50;;;;;;4983261;28;20230;-70
2021/01/12 04:57:50;;;;;;;7.18;1.30;;;32.30;59.40;;;;;;4991772;28;20190;-72
2021/01/12 05:00:29;;;;;;;5.45;1.42;;;32.20;59.50;;;;;;4992901;28;20226;-71
2021/01/12 05:03:07;;;;;;;6.53;1.38;;;32.80;59.50;;;;;;4992997;28;20361;-69
2021/01/12 05:05:39;;;;;;;10.10;1.40;;;33.20;58.80;;;;;;4989539;28;20695;-71
2021/01/12 05:08:08;;;;;;;4.13;1.42;;;33.40;57.70;;;;;;4991674;28;20656;-70
2021/01/12 05:10:42;;;;;;;4.53;1.20;;;33.00;57.60;;;;;;4992723;28;20175;-70
2021/01/12 05:13:14;;;;;;;8.18;1.40;;;32.60;58.70;;;;;;4994780;28;20182;-72
2021/01/12 05:15:47;;;;;;;6.40;1.95;;;32.70;59.30;;;;;;4995579;28;20676;-70
2021/01/12 05:18:18;;;;;;;7.15;1.77;;;33.20;58.60;;;;;;4985467;28;20209;-69
2021/01/12 05:20:50;;;;;;;6.07;1.73;;;33.70;56.90;;;;;;4988163;28;20298;-68
2021/01/12 05:23:25;;;;;;;8.95;2.85;;;33.40;56.70;;;;;;4976954;28;20214;-70
2021/01/12 05:26:00;;;;;;;5.70;1.20;;;33.60;57.10;;;;;;4976970;28;20241;-69
2021/01/12 05:28:32;;;;;;;6.15;1.42;;;33.00;57.40;;;;;;4978126;28;20181;-70
2021/01/12 05:31:01;;;;;;;5.90;1.42;;;32.20;59.20;;;;;;4990203;28;20178;-70
2021/01/12 05:33:31;;;;;;;8.07;2.00;;;31.50;60.40;;;;;;4995316;28;20366;-72
2021/01/12 05:36:00;;;;;;;4.30;1.10;;;31.70;60.60;;;;;;4996130;28;20247;-72
2021/01/12 05:38:28;;;;;;;5.25;1.50;;;32.10;59.20;;;;;;4991562;28;20633;-68
2021/01/12 05:40:58;;;;;;;7.25;1.67;;;32.60;57.50;;;;;;4986435;28;20186;-71
2021/01/12 05:43:35;;;;;;;4.65;1.35;;;32.10;58.10;;;;;;4993692;28;20178;-71
2021/01/12 05:46:20;;;;;;;5.00;1.38;;;31.80;58.60;;;;;;4987889;28;20178;-68
2021/01/12 05:48:48;;;;;;;8.18;1.70;;;31.70;58.20;;;;;;4992279;28;20197;-70
2021/01/12 05:51:16;;;;;;;8.88;1.90;;;31.20;59.30;;;;;;4995524;28;20213;-74
2021/01/12 05:53:46;;;;;;;4.65;1.48;;;31.60;59.30;;;;;;4994308;28;20186;-74
2021/01/12 05:56:27;;;;;;;4.25;1.02;;;31.90;58.50;;;;;;4993789;28;20240;-70
2021/01/12 05:58:57;;;;;;;6.80;1.70;;;32.00;57.50;;;;;;4995801;28;20170;-69
2021/01/12 06:01:33;;;;;;;9.13;1.73;;;31.90;58.20;;;;;;4993061;28;20268;-71
2021/01/12 06:04:09;;;;;;;5.75;1.58;;;32.20;58.60;;;;;;4982018;28;20182;-72
2021/01/12 06:06:38;;;;;;;7.97;1.90;;;32.60;58.10;;;;;;4985791;28;20193;-71
2021/01/12 06:09:07;;;;;;;8.68;1.58;;;33.10;57.30;;;;;;4988353;28;20182;-69
2021/01/12 06:11:39;;;;;;;6.60;1.70;;;33.20;56.70;;;;;;4983505;28;20216;-71
2021/01/12 06:14:08;;;;;;;10.45;3.13;;;32.90;56.80;;;;;;4985316;28;20191;-70
2021/01/12 06:16:38;;;;;;;8.00;1.58;;;32.50;58.10;;;;;;4992708;28;20263;-71
2021/01/12 06:19:25;;;;;;;8.55;1.65;;;32.50;58.30;;;;;;4985209;28;20194;-72
2021/01/12 06:21:55;;;;;;;8.60;1.58;;;32.50;57.60;;;;;;4988737;28;20656;-68
2021/01/12 06:24:45;;;;;;;5.75;1.50;;;32.80;57.40;;;;;;4994342;28;20193;-69
2021/01/12 06:27:13;;;;;;;10.52;6.78;;;32.90;56.80;;;;;;4988527;28;20632;-70
2021/01/12 06:29:45;;;;;;;5.72;1.60;;;32.50;57.80;;;;;;4994571;28;20540;-72
2021/01/12 06:32:23;;;;;;;10.93;3.58;;;32.70;58.10;;;;;;4990014;28;20178;-69
2021/01/12 06:34:53;;;;;;;7.93;2.95;;;32.70;58.20;;;;;;4977430;28;20269;-69
2021/01/12 06:37:22;;;;;;;8.65;2.33;;;32.70;57.60;;;;;;4992815;28;20178;-70
2021/01/12 06:39:53;;;;;;;6.95;1.60;;;32.80;57.40;;;;;;4982813;28;20219;-71
2021/01/12 06:42:26;;;;;;;7.03;1.70;;;33.10;56.80;;;;;;4991572;28;20229;-69
2021/01/12 06:44:55;;;;;;;8.32;1.85;;;32.70;57.40;;;;;;4990854;28;20536;-71
2021/01/12 06:47:25;;;;;;;6.10;1.38;;;32.50;58.40;;;;;;4989617;28;20186;-70
2021/01/12 06:50:14;;;;;;;6.68;1.85;;;32.40;58.30;;;;;;4991272;28;20183;-71
2021/01/12 06:53:19;;;;;;;11.25;1.83;;;32.60;58.60;;;;;;4985747;28;20170;-69
2021/01/12 06:55:46;;;;;;;10.25;1.75;;;32.60;58.50;;;;;;4993556;28;20237;-72
2021/01/12 06:58:13;;;;;;;8.82;1.90;;;32.60;58.50;;;;;;4992694;28;20209;-72
2021/01/12 07:00:47;;;;;;;14.30;2.08;;;32.70;58.10;;;;;;4991947;28;20185;-70
2021/01/12 07:03:30;;;;;;;7.25;1.52;;;32.70;57.90;;;;;;4992557;28;20189;-73
2021/01/12 07:06:01;;;;;;;7.03;1.40;;;32.60;58.70;;;;;;4990454;28;20293;-68
2021/01/12 07:08:30;;;;;;;8.20;1.90;;;32.30;58.80;;;;;;4993738;28;20634;-71
2021/01/12 07:11:03;;;;;;;6.07;1.35;;;32.30;58.30;;;;;;4988207;28;20187;-71
2021/01/12 07:13:44;;;;;;;4.80;1.58;;;32.10;59.20;;;;;;4993622;28;20201;-70
2021/01/12 07:16:17;;;;;;;8.18;1.52;;;32.40;58.50;;;;;;4994002;28;20576;-72
2021/01/12 07:18:57;;;;;;;8.25;1.90;;;31.90;58.70;;;;;;4993789;28;20561;-70
2021/01/12 07:21:31;;;;;;;6.72;1.42;;;31.70;59.60;;;;;;4979916;28;20186;-71
2021/01/12 07:24:03;;;;;;;6.93;1.83;;;31.40;58.80;;;;;;4980686;28;20173;-70
2021/01/12 07:26:34;;;;;;;4.53;1.50;;;31.10;59.70;;;;;;4991708;28;20170;-69
2021/01/12 07:29:09;;;;;;;10.55;1.73;;;31.20;59.70;;;;;;4993955;28;20256;-71
2021/01/12 07:31:36;;;;;;;5.55;1.35;;;30.80;59.90;;;;;;4993751;28;20177;-70
2021/01/12 07:34:13;;;;;;;5.63;1.25;;;30.30;60.90;;;;;;4977335;28;20522;-72
2021/01/12 07:36:41;;;;;;;7.22;1.38;;;29.80;62.40;;;;;;4992886;28;20213;-71
2021/01/12 07:39:09;;;;;;;8.70;1.40;;;29.80;62.90;;;;;;4993875;28;20186;-72
2021/01/12 07:41:37;;;;;;;5.80;1.67;;;29.50;63.50;;;;;;4992530;28;20601;-70
2021/01/12 07:44:07;;;;;;;10.37;1.73;;;29.00;64.10;;;;;;4987576;28;20211;-67
2021/01/12 07:46:35;;;;;;;6.00;1.33;;;28.80;64.60;;;;;;4990472;28;20699;-68
2021/01/12 07:49:02;;;;;;;7.87;1.50;;;28.80;64.60;;;;;;4988945;28;20186;-69
2021/01/12 07:51:30;;;;;;;7.90;1.83;;;28.60;64.90;;;;;;4990867;28;20506;-69
2021/01/12 07:53:57;;;;;;;6.53;1.40;;;28.50;65.70;;;;;;4981427;28;20228;-69
2021/01/12 07:56:25;;;;;;;6.97;1.70;;;28.40;66.80;;;;;;4993253;28;20321;-68
2021/01/12 07:58:52;;;;;;;9.03;2.17;;;28.20;67.10;;;;;;4993399;28;20185;-69
2021/01/12 08:01:29;;;;;;;17.60;4.43;;;28.20;67.00;;;;;;4993693;28;20178;-68
2021/01/12 08:03:56;;;;;;;12.57;1.80;;;28.00;67.50;;;;;;4988598;28;20186;-69
2021/01/12 08:06:23;;;;;;;9.40;1.70;;;27.80;68.40;;;;;;4979095;28;20217;-70
2021/01/12 08:08:57;;;;;;;8.03;1.43;;;27.60;68.70;;;;;;4991454;28;20181;-70
2021/01/12 08:11:25;;;;;;;7.87;1.90;;;27.40;69.40;;;;;;4987419;28;20182;-70
2021/01/12 08:14:07;;;;;;;9.27;1.80;;;27.30;69.90;;;;;;4989870;28;20181;-70
2021/01/12 08:16:34;;;;;;;2.00;1.20;;;27.30;70.20;;;;;;4993245;28;20221;-70
2021/01/12 08:19:02;;;;;;;9.90;2.07;;;27.10;70.60;;;;;;4988918;28;20277;-70
2021/01/12 08:21:40;;;;;;;9.07;1.93;;;27.10;70.60;;;;;;4986773;28;20194;-69
2021/01/12 08:24:09;;;;;;;11.87;2.23;;;27.10;70.80;;;;;;4989023;28;20189;-69
2021/01/12 08:26:43;;;;;;;6.53;2.30;;;27.00;71.60;;;;;;4983431;28;20186;-70
2021/01/12 08:29:11;;;;;;;11.13;1.97;;;26.80;72.60;;;;;;4985339;28;20267;-70
2021/01/12 08:32:03;;;;;;;11.47;2.30;;;26.60;73.80;;;;;;4993240;28;20228;-69
2021/01/12 08:34:48;;;;;;;14.00;1.67;;;26.60;75.20;;;;;;4988205;28;20186;-69
2021/01/12 08:37:18;;;;;;;8.60;1.40;;;26.40;75.60;;;;;;4991817;28;20657;-71
2021/01/12 08:39:47;;;;;;;20.20;3.73;;;26.30;76.60;;;;;;4993291;28;20225;-70
2021/01/12 08:42:19;;;;;;;12.87;2.43;;;26.20;77.40;;;;;;4983777;28;20197;-71
2021/01/12 08:44:46;;;;;;;8.23;2.23;;;26.10;78.10;;;;;;4988669;28;20177;-69
2021/01/12 08:47:14;;;;;;;12.20;2.73;;;26.00;78.70;;;;;;4995235;28;20538;-69
2021/01/12 08:49:41;;;;;;;9.73;2.03;;;25.90;79.40;;;;;;4996713;28;20181;-70
2021/01/12 08:52:09;;;;;;;11.63;2.53;;;25.80;80.30;;;;;;4986786;28;20178;-70
2021/01/12 08:54:37;;;;;;;9.33;1.77;;;25.70;80.90;;;;;;4993613;28;20189;-68
2021/01/12 08:57:06;;;;;;;11.13;1.97;;;25.60;81.80;;;;;;4995675;28;20213;-69
2021/01/12 08:59:34;;;;;;;9.33;2.07;;;25.50;81.90;;;;;;4995117;28;20190;-68
2021/01/12 09:02:02;;;;;;;8.70;2.03;;;25.50;82.90;;;;;;4988331;28;20197;-69
2021/01/12 09:04:30;;;;;;;10.63;2.73;;;25.50;83.30;;;;;;4994682;28;20189;-67
2021/01/12 09:07:05;;;;;;;10.67;2.40;;;25.40;84.40;;;;;;4980663;28;20192;-69
2021/01/12 09:09:33;;;;;;;9.93;2.00;;;25.30;85.30;;;;;;4991585;28;20209;-68
2021/01/12 09:12:02;;;;;;;15.20;2.20;;;25.20;86.10;;;;;;4990728;28;20185;-69
2021/01/12 09:14:32;;;;;;;8.70;1.73;;;25.30;87.00;;;;;;4993573;28;20663;-68
2021/01/12 09:17:04;;;;;;;18.40;2.57;;;25.30;87.60;;;;;;4994605;28;20249;-70
2021/01/12 09:19:39;;;;;;;10.37;2.17;;;25.20;88.40;;;;;;4996345;28;20181;-67
2021/01/12 09:22:15;;;;;;;17.10;2.30;;;25.10;89.10;;;;;;4996116;28;20204;-69
2021/01/12 09:24:51;;;;;;;16.53;2.93;;;25.00;90.20;;;;;;4994308;28;20654;-70
2021/01/12 09:27:24;;;;;;;10.23;2.23;;;25.00;90.40;;;;;;4989326;28;20177;-71
2021/01/12 09:29:52;;;;;;;13.17;2.43;;;24.90;90.60;;;;;;4990968;28;20543;-71
2021/01/12 09:32:34;;;;;;;11.73;2.13;;;24.80;90.80;;;;;;5000560;28;20185;-70
2021/01/12 09:35:07;;;;;;;11.77;2.10;;;24.80;91.10;;;;;;4990572;28;20198;-68
2021/01/12 09:37:34;;;;;;;11.63;2.30;;;24.70;91.40;;;;;;4984501;28;20182;-69
2021/01/12 09:40:02;;;;;;;17.43;2.63;;;24.70;91.70;;;;;;4995217;28;20231;-70
2021/01/12 09:42:30;;;;;;;13.17;2.20;;;24.70;92.30;;;;;;4986343;28;20647;-68
2021/01/12 09:44:57;;;;;;;12.33;2.50;;;24.70;92.30;;;;;;4993929;28;20276;-70
2021/01/12 09:47:24;;;;;;;11.30;2.33;;;24.70;92.50;;;;;;4993941;28;20190;-70
2021/01/12 09:49:52;;;;;;;18.73;3.00;;;24.60;92.90;;;;;;4989279;28;20265;-70
2021/01/12 09:52:19;;;;;;;14.63;2.83;;;24.60;93.00;;;;;;4985103;28;20484;-68
2021/01/12 09:54:47;;;;;;;11.93;2.50;;;24.50;93.10;;;;;;4989485;28;20277;-68
2021/01/12 09:57:14;;;;;;;10.37;2.23;;;24.40;93.30;;;;;;4993939;28;20217;-71
2021/01/12 09:59:42;;;;;;;24.57;3.30;;;24.40;93.50;;;;;;4993294;28;20184;-70
2021/01/12 10:02:10;;;;;;;8.30;2.00;;;24.30;93.50;;;;;;4994583;28;20213;-68
2021/01/12 10:04:37;;;;;;;16.23;2.60;;;24.30;93.60;;;;;;4989474;28;20241;-70
2021/01/12 10:07:04;;;;;;;11.23;2.20;;;24.30;93.70;;;;;;4992049;28;20744;-69
2021/01/12 10:09:32;;;;;;;15.43;2.67;;;24.30;93.80;;;;;;4995283;28;20653;-70
2021/01/12 10:11:59;;;;;;;18.27;3.60;;;24.30;93.90;;;;;;4984734;28;20175;-71
2021/01/12 10:14:27;;;;;;;15.13;2.73;;;24.20;94.00;;;;;;4989775;28;20550;-70
2021/01/12 10:16:54;;;;;;;13.23;2.27;;;24.20;94.20;;;;;;4992209;28;20226;-70
2021/01/12 10:19:21;;;;;;;18.47;2.63;;;24.20;94.30;;;;;;4982523;28;20217;-69
2021/01/12 10:21:52;;;;;;;11.00;2.23;;;24.20;94.50;;;;;;4992353;28;20285;-70
2021/01/12 10:24:23;;;;;;;10.13;2.40;;;24.10;94.70;;;;;;4994503;28;20182;-69
2021/01/12 10:26:55;;;;;;;15.17;3.13;;;24.10;94.80;;;;;;4990174;28;20216;-73
2021/01/12 10:29:26;;;;;;;13.50;3.00;;;24.00;95.00;;;;;;4987766;28;20197;-69
2021/01/12 10:31:54;;;;;;;17.20;3.23;;;24.00;95.10;;;;;;4986189;28;20209;-69
2021/01/12 10:34:21;;;;;;;18.67;2.97;;;24.00;95.10;;;;;;4991003;28;20187;-69
2021/01/12 10:36:53;;;;;;;14.53;2.40;;;24.00;95.20;;;;;;4995583;28;20217;-68
2021/01/12 10:39:20;;;;;;;13.03;5.17;;;24.00;95.10;;;;;;4995992;28;20186;-69
2021/01/12 10:41:48;;;;;;;16.67;3.47;;;24.00;95.20;;;;;;4994638;28;20683;-68
2021/01/12 10:44:16;;;;;;;18.63;4.30;;;24.00;95.20;;;;;;4994249;28;20554;-70
2021/01/12 10:46:43;;;;;;;15.57;3.30;;;24.00;95.60;;;;;;4995382;28;20265;-69
2021/01/12 10:49:10;;;;;;;17.93;3.70;;;24.00;95.50;;;;;;4988670;28;20625;-70
2021/01/12 10:51:38;;;;;;;11.53;2.30;;;24.00;95.40;;;;;;4995216;28;20190;-69
2021/01/12 10:54:06;;;;;;;11.97;2.77;;;24.00;95.40;;;;;;4991145;28;20550;-68
2021/01/12 10:56:33;;;;;;;12.50;2.47;;;24.00;95.30;;;;;;4991530;28;20660;-70
2021/01/12 10:59:00;;;;;;;13.60;2.37;;;24.00;95.50;;;;;;4993171;28;20220;-71
2021/01/12 11:01:28;;;;;;;17.03;2.97;;;23.90;95.50;;;;;;4995014;28;20197;-69
2021/01/12 11:03:56;;;;;;;12.70;2.23;;;23.90;95.60;;;;;;4979671;28;20182;-70
2021/01/12 11:06:23;;;;;;;22.90;3.03;;;23.90;95.70;;;;;;4979545;28;20550;-69
2021/01/12 11:08:53;;;;;;;13.30;2.03;;;23.90;95.70;;;;;;4980109;28;20178;-72
2021/01/12 11:11:21;;;;;;;18.67;9.53;;;23.90;95.80;;;;;;4990899;28;20662;-71
2021/01/12 11:13:48;;;;;;;14.80;3.53;;;23.90;95.80;;;;;;4989871;28;20530;-70
2021/01/12 11:16:17;;;;;;;14.33;2.60;;;23.90;95.80;;;;;;4987437;28;20577;-71
2021/01/12 11:18:46;;;;;;;11.53;2.60;;;23.90;95.80;;;;;;4992924;28;20181;-70
2021/01/12 11:21:17;;;;;;;18.97;3.23;;;23.80;96.00;;;;;;4994580;28;20277;-70
2021/01/12 11:23:45;;;;;;;13.00;2.37;;;23.80;96.10;;;;;;4993351;28;20510;-70
2021/01/12 11:26:12;;;;;;;16.60;2.83;;;23.80;96.00;;;;;;4994811;28;20723;-71
2021/01/12 11:28:40;;;;;;;19.30;7.30;;;23.80;96.00;;;;;;4994459;28;20190;-72
2021/01/12 11:31:08;;;;;;;16.67;5.57;;;23.80;96.00;;;;;;4994789;28;20556;-70
2021/01/12 11:33:35;;;;;;;11.20;2.33;;;23.80;96.20;;;;;;4993837;28;20190;-71
2021/01/12 11:36:03;;;;;;;10.93;2.70;;;23.70;96.30;;;;;;4994484;28;20214;-71
2021/01/12 11:38:30;;;;;;;22.17;2.60;;;23.70;96.40;;;;;;4994259;28;20535;-70
2021/01/12 11:40:58;;;;;;;16.47;2.77;;;23.70;96.30;;;;;;4988530;28;20190;-71
2021/01/12 11:43:25;;;;;;;13.03;2.23;;;23.70;96.30;;;;;;4988968;28;21053;-69
2021/01/12 11:45:53;;;;;;;12.07;2.60;;;23.60;96.40;;;;;;4985671;28;20182;-71
2021/01/12 11:48:20;;;;;;;16.47;2.47;;;23.60;96.50;;;;;;4992368;28;20644;-70
2021/01/12 11:50:48;;;;;;;13.43;2.80;;;23.60;96.60;;;;;;4982223;28;20193;-71
2021/01/12 11:53:15;;;;;;;15.77;2.97;;;23.50;96.60;;;;;;4981067;28;20267;-70
2021/01/12 11:55:42;;;;;;;13.50;2.57;;;23.60;96.70;;;;;;4991991;28;20237;-69
2021/01/12 11:58:10;;;;;;;14.93;2.33;;;23.60;96.70;;;;;;4990448;28;20268;-71
2021/01/12 12:00:38;;;;;;;12.93;2.40;;;23.60;96.60;;;;;;4982943;28;20193;-69
2021/01/12 12:03:06;;;;;;;16.47;2.63;;;23.60;96.60;;;;;;4993638;28;20307;-69
2021/01/12 12:05:33;;;;;;;10.97;2.20;;;23.50;96.40;;;;;;4986394;28;20183;-70
2021/01/12 12:08:00;;;;;;;18.17;2.83;;;23.50;96.60;;;;;;4987313;28;20317;-70
2021/01/12 12:10:28;;;;;;;13.07;2.87;;;23.50;96.60;;;;;;4985106;28;20225;-69
2021/01/12 12:12:55;;;;;;;14.77;2.47;;;23.50;96.60;;;;;;4986530;28;20628;-70
2021/01/12 12:15:24;;;;;;;17.67;3.00;;;23.50;96.70;;;;;;4993232;28;20213;-70
2021/01/12 12:17:51;;;;;;;24.70;2.80;;;23.40;96.70;;;;;;4989724;28;20546;-70
2021/01/12 12:20:19;;;;;;;14.37;2.53;;;23.40;96.80;;;;;;4980673;28;20206;-70
2021/01/12 12:22:47;;;;;;;12.33;2.23;;;23.40;96.80;;;;;;4992821;28;20193;-68
2021/01/12 12:25:14;;;;;;;17.27;3.20;;;23.40;96.80;;;;;;4991347;28;20182;-70
2021/01/12 12:27:41;;;;;;;16.23;2.57;;;23.30;96.90;;;;;;4989966;28;20596;-69
2021/01/12 12:30:10;;;;;;;15.97;2.50;;;23.30;96.90;;;;;;4990735;28;20259;-70
2021/01/12 12:32:38;;;;;;;17.90;2.93;;;23.30;97.00;;;;;;4982380;28;20190;-70
2021/01/12 12:35:06;;;;;;;17.33;2.73;;;23.30;97.00;;;;;;4974107;28;20514;-70
2021/01/12 12:37:33;;;;;;;13.87;2.83;;;23.30;97.00;;;;;;4993236;28;20190;-69
2021/01/12 12:40:01;;;;;;;14.27;3.70;;;23.30;97.10;;;;;;4993288;28;20170;-69
2021/01/12 12:42:28;;;;;;;26.60;3.13;;;23.30;97.10;;;;;;4984014;28;20200;-70
2021/01/12 12:44:56;;;;;;;15.03;2.37;;;23.30;97.20;;;;;;4990846;28;20185;-69
2021/01/12 12:47:23;;;;;;;18.97;2.87;;;23.30;97.10;;;;;;4977956;28;20208;-70
2021/01/12 12:49:51;;;;;;;18.47;2.90;;;23.30;97.20;;;;;;4973916;28;20183;-69
2021/01/12 12:52:19;;;;;;;14.73;2.60;;;23.20;97.30;;;;;;4980741;28;20541;-68
2021/01/12 12:54:46;;;;;;;16.40;2.80;;;23.20;97.20;;;;;;4992916;28;20718;-69